Joshua David Esper — WDD8059 — position and weather

sailwx.info

Track history (hours):
 
Tides and Currents Weather Stations Pressure Air Temp Water Temp Dewpoint Dewpoint Depression Visibility Wind Speed Wind Dir Waves Ship Positions

Joshua David Esper

Owner: Marquette Transportation Company LLC, Paducah, KY. More information available from US FCC via Universal Licensing System and Coast Guard Vessel Documentation Center.

Last reported at 2017-Sep-11 18:57 UTC. Time now 2017-Sep-21 03:11 UTC.
Position N 32°40' W 091°07'.
Warning: this ship's position is 9 days out of date.

Length 42 m; draft 2.7 m.

Type: Tow > 200 m length. MMSI: 367194680.

Date/timePositionNaut miles runAvg speedWind from/ knotsBaromVisibWave heightAir tempDewpointWater temp
2017-Sep-11 18:57N 32°40' W 091°07'3 3.3
2017-Sep-11 18:10N 32°38' W 091°09'0 1.1
2017-Sep-11 18:00N 32°38' W 091°09'0 0.0
2017-Sep-11 17:30N 32°38' W 091°09'0 0.0
2017-Sep-11 16:59N 32°38' W 091°09'0 0.0
2017-Sep-11 16:30N 32°38' W 091°09'1 1.6
2017-Sep-11 16:00N 32°37' W 091°09'1 0.8
2017-Sep-11 14:31N 32°36' W 091°09'0 0.4
2017-Sep-11 14:30N 32°36' W 091°09'1 2.0
2017-Sep-11 14:00N 32°35' W 091°08'2 3.7
2017-Sep-11 13:29N 32°34' W 091°06'1 3.1
2017-Sep-11 13:00N 32°33' W 091°06'2 4.2
2017-Sep-11 12:29N 32°31' W 091°07'2 4.5
2017-Sep-11 12:00N 32°29' W 091°07'2 4.4
2017-Sep-11 11:30N 32°27' W 091°05'2 3.7
2017-Sep-11 11:00N 32°26' W 091°03'2 4.3
2017-Sep-11 10:30N 32°25' W 091°00'2 3.6
2017-Sep-11 10:00N 32°24' W 090°59'2 4.8
2017-Sep-11 09:30N 32°22' W 091°00'2 4.4
2017-Sep-11 09:00N 32°21' W 090°58'2 3.7
2017-Sep-11 08:30N 32°21' W 090°56'2 3.7
2017-Sep-11 08:00N 32°19' W 090°54'2 4.2
2017-Sep-11 07:30N 32°18' W 090°56'2 4.7
2017-Sep-11 07:00N 32°16' W 090°58'2 4.2
2017-Sep-11 06:30N 32°14' W 090°59'2 4.7
2017-Sep-11 06:00N 32°12' W 090°59'2 4.0
2017-Sep-11 05:30N 32°10' W 090°60'2 4.6
2017-Sep-11 05:00N 32°08' W 091°01'2 3.2
2017-Sep-11 04:30N 32°07' W 091°02'2 3.4
2017-Sep-11 03:59N 32°08' W 091°04'2 4.1
2017-Sep-11 03:30N 32°07' W 091°07'5 3.9
2017-Sep-11 02:12N 32°03' W 091°03'2 4.7
2017-Sep-11 01:41N 32°01' W 091°05'  
Track history (hours):
 
Tides and Currents Weather Stations Pressure Air Temp Water Temp Dewpoint Dewpoint Depression Visibility Wind Speed Wind Dir Waves Ship Positions

Joshua David Esper

Owner: Marquette Transportation Company LLC, Paducah, KY. More information available from US FCC via Universal Licensing System and Coast Guard Vessel Documentation Center.

Last reported at 2017-Sep-11 18:57 UTC. Time now 2017-Sep-21 03:11 UTC.
Position N 32°40' W 091°07'.
Warning: this ship's position is 9 days out of date.

Length 42 m; draft 2.7 m.

Type: Tow > 200 m length. MMSI: 367194680.

Date/timePositionNaut miles runAvg speedWind from/ knotsBaromVisibWave heightAir tempDewpointWater temp
2017-Sep-11 18:57N 32°40' W 091°07'3 3.3
2017-Sep-11 18:10N 32°38' W 091°09'0 1.1
2017-Sep-11 18:00N 32°38' W 091°09'0 0.0
2017-Sep-11 17:30N 32°38' W 091°09'0 0.0
2017-Sep-11 16:59N 32°38' W 091°09'0 0.0
2017-Sep-11 16:30N 32°38' W 091°09'1 1.6
2017-Sep-11 16:00N 32°37' W 091°09'1 0.8
2017-Sep-11 14:31N 32°36' W 091°09'0 0.4
2017-Sep-11 14:30N 32°36' W 091°09'1 2.0
2017-Sep-11 14:00N 32°35' W 091°08'2 3.7
2017-Sep-11 13:29N 32°34' W 091°06'1 3.1
2017-Sep-11 13:00N 32°33' W 091°06'2 4.2
2017-Sep-11 12:29N 32°31' W 091°07'2 4.5
2017-Sep-11 12:00N 32°29' W 091°07'2 4.4
2017-Sep-11 11:30N 32°27' W 091°05'2 3.7
2017-Sep-11 11:00N 32°26' W 091°03'2 4.3
2017-Sep-11 10:30N 32°25' W 091°00'2 3.6
2017-Sep-11 10:00N 32°24' W 090°59'2 4.8
2017-Sep-11 09:30N 32°22' W 091°00'2 4.4
2017-Sep-11 09:00N 32°21' W 090°58'2 3.7
2017-Sep-11 08:30N 32°21' W 090°56'2 3.7
2017-Sep-11 08:00N 32°19' W 090°54'2 4.2
2017-Sep-11 07:30N 32°18' W 090°56'2 4.7
2017-Sep-11 07:00N 32°16' W 090°58'2 4.2
2017-Sep-11 06:30N 32°14' W 090°59'2 4.7
2017-Sep-11 06:00N 32°12' W 090°59'2 4.0
2017-Sep-11 05:30N 32°10' W 090°60'2 4.6
2017-Sep-11 05:00N 32°08' W 091°01'2 3.2
2017-Sep-11 04:30N 32°07' W 091°02'2 3.4
2017-Sep-11 03:59N 32°08' W 091°04'2 4.1
2017-Sep-11 03:30N 32°07' W 091°07'5 3.9
2017-Sep-11 02:12N 32°03' W 091°03'2 4.7
2017-Sep-11 01:41N 32°01' W 091°05'  

Dump ship's entire track history